MMML/MXL METAR and TAF weather

Enter ICAO airport designator
Station Type Date Time Source
MMML METAR 2020/09/22 16:40 UTC NOAA

MMML 221640Z 15005KT 10SM SKC 31/18 A2993


Station Type Date Time Source
MMML Decoded METAR 2020/09/22 16:40 UTC NOAA

Mexicali International Airport , Mexico (MMML) 32-38N 117-00W
Sep 22, 2020 - 12:40 PM EDT / 2020.09.22 1640 UTC
Wind: from the SSE (150 degrees) at 6 MPH (5 KT):0
Visibility: 10 mile(s):0
Sky conditions: clear
Temperature: 87 F (31 C)
Dew Point: 64 F (18 C)
Relative Humidity: 45%
Pressure (altimeter): 29.93 in. Hg (1013 hPa)
ob: MMML 221640Z 15005KT 10SM SKC 31/18 A2993
cycle: 16

Station Type Date Time Source
MMML TAF 2020/09/22 18:12 UTC NOAA

TAF MMML 221705Z 2218/2318 20010KT P6SM SKC
FM230300 00000KT P6SM SKC

Example: see airport list